Time;durP1;ratioP1;P1;durP2;ratioP2;P2;SDS_P1;SDS_P2;PMS_P1;PMS_P2;Temp;Humidity;BMP_temperature;BMP_pressure;BME280_temperature;BME280_humidity;BME280_pressure;Samples;Min_cycle;Max_cycle;Signal;HPM_P1;HPM_P2
2024/01/30 00:02:07;;;;;;;2.03;1.92;;;;;;;1.17;58.82;102287.34;4356499;32;34762;-85
2024/01/30 00:04:35;;;;;;;2.35;2.25;;;;;;;1.29;58.38;102290.38;4373857;32;34591;-86
2024/01/30 00:07:03;;;;;;;4.20;3.80;;;;;;;0.97;59.51;102286.66;4348040;32;32924;-86
2024/01/30 00:09:30;;;;;;;3.28;3.08;;;;;;;1.22;58.67;102284.06;4355666;32;32854;-86
2024/01/30 00:11:58;;;;;;;1.80;1.70;;;;;;;1.36;57.61;102288.84;4354712;32;33672;-86
2024/01/30 00:14:26;;;;;;;1.30;1.30;;;;;;;1.20;58.25;102280.53;4348887;32;34176;-86
2024/01/30 00:16:54;;;;;;;0.60;0.60;;;;;;;1.06;58.79;102280.91;4363379;32;33338;-86
2024/01/30 00:19:22;;;;;;;1.62;1.58;;;;;;;1.16;58.81;102275.16;4361666;32;33496;-86
2024/01/30 00:21:50;;;;;;;4.68;2.92;;;;;;;1.34;57.78;102288.81;4373284;32;34078;-86
2024/01/30 00:24:18;;;;;;;2.70;2.50;;;;;;;1.27;58.00;102287.69;4360464;32;34385;-87
2024/01/30 00:26:46;;;;;;;3.65;2.70;;;;;;;1.20;58.19;102284.84;4351732;32;33189;-85
2024/01/30 00:29:19;;;;;;;3.90;3.60;;;;;;;1.33;57.69;102291.34;4362059;32;33082;-86
2024/01/30 00:31:47;;;;;;;1.60;1.48;;;;;;;1.30;57.71;102293.88;4362381;32;33279;-86
2024/01/30 00:34:15;;;;;;;1.33;1.25;;;;;;;1.32;57.82;102294.78;4362329;32;34016;-85
2024/01/30 00:36:43;;;;;;;2.35;2.15;;;;;;;1.17;58.07;102300.34;4360843;32;33567;-85
2024/01/30 00:39:11;;;;;;;1.70;1.60;;;;;;;0.95;58.78;102298.72;4375451;32;33611;-85
2024/01/30 00:41:39;;;;;;;3.03;2.78;;;;;;;0.98;58.72;102301.44;4366295;32;33243;-85
2024/01/30 00:44:07;;;;;;;3.60;3.10;;;;;;;0.93;58.54;102303.88;4361564;32;34065;-85
2024/01/30 00:46:35;;;;;;;4.40;2.62;;;;;;;1.11;57.53;102308.84;4373713;32;33342;-84
2024/01/30 00:49:02;;;;;;;2.75;2.55;;;;;;;1.12;57.64;102305.41;4343532;32;33043;-84
2024/01/30 00:51:31;;;;;;;1.67;1.20;;;;;;;0.98;58.35;102306.62;4356341;32;33002;-84
2024/01/30 00:53:59;;;;;;;3.12;2.92;;;;;;;0.81;58.71;102310.34;4361518;32;34408;-84
2024/01/30 00:56:27;;;;;;;0.82;0.82;;;;;;;0.77;58.38;102307.63;4361354;32;32472;-84
2024/01/30 00:58:55;;;;;;;1.45;1.05;;;;;;;0.81;58.93;102303.44;4359503;32;34523;-84
2024/01/30 01:01:23;;;;;;;3.00;2.75;;;;;;;0.84;58.65;102302.66;4370559;32;35210;-84
2024/01/30 01:03:51;;;;;;;3.47;2.80;;;;;;;0.90;57.61;102300.25;4356179;32;33635;-84
2024/01/30 01:06:19;;;;;;;1.30;1.08;;;;;;;0.81;58.17;102289.53;4358124;32;33370;-85
2024/01/30 01:08:47;;;;;;;1.50;1.33;;;;;;;0.69;58.85;102290.87;4363402;32;32847;-84
2024/01/30 01:11:15;;;;;;;1.90;1.80;;;;;;;0.72;58.31;102293.59;4332774;32;34490;-86
2024/01/30 01:13:43;;;;;;;2.80;2.65;;;;;;;0.85;58.45;102297.50;4355818;32;32526;-86
2024/01/30 01:16:11;;;;;;;1.80;1.70;;;;;;;1.10;57.30;102299.28;4361440;32;33006;-86
2024/01/30 01:18:39;;;;;;;1.48;1.48;;;;;;;1.01;57.72;102293.75;4355828;32;33137;-86
2024/01/30 01:21:07;;;;;;;3.22;2.17;;;;;;;0.83;58.50;102287.87;4371665;32;34728;-86
2024/01/30 01:23:35;;;;;;;1.70;1.65;;;;;;;0.81;58.38;102289.53;4360382;32;33762;-86
2024/01/30 01:26:03;;;;;;;4.53;3.67;;;;;;;0.83;57.98;102285.28;4363490;32;32374;-85
2024/01/30 01:28:30;;;;;;;6.30;3.33;;;;;;;0.81;57.90;102277.44;4361402;32;33588;-85
2024/01/30 01:31:04;;;;;;;3.60;3.00;;;;;;;0.83;57.69;102273.16;4341605;32;34492;-85
2024/01/30 01:33:34;;;;;;;2.42;1.95;;;;;;;0.85;57.90;102281.00;4367538;32;32223;-84
2024/01/30 01:36:02;;;;;;;2.30;2.20;;;;;;;0.89;57.56;102272.47;4373444;32;33320;-85
2024/01/30 01:38:30;;;;;;;0.43;0.43;;;;;;;0.97;57.61;102273.66;4358168;32;33957;-84
2024/01/30 01:40:58;;;;;;;3.33;1.60;;;;;;;0.72;58.50;102264.97;4354491;32;33002;-85
2024/01/30 01:43:26;;;;;;;2.50;2.17;;;;;;;0.81;58.35;102268.72;4342650;32;33737;-84
2024/01/30 01:45:54;;;;;;;1.85;1.75;;;;;;;0.68;58.21;102273.50;4352078;32;33565;-84
2024/01/30 01:48:21;;;;;;;0.30;0.30;;;;;;;0.48;59.01;102271.91;4350383;32;33131;-84
2024/01/30 01:50:49;;;;;;;1.25;1.23;;;;;;;0.35;59.28;102269.66;4373996;32;33549;-83
2024/01/30 01:53:18;;;;;;;3.17;2.97;;;;;;;0.33;59.59;102266.09;4348860;32;32465;-83
2024/01/30 01:55:45;;;;;;;1.42;1.35;;;;;;;0.51;59.18;102269.38;4359717;32;32261;-83
2024/01/30 01:58:14;;;;;;;3.55;3.33;;;;;;;0.60;59.02;102267.13;4354852;32;32853;-83
2024/01/30 02:00:42;;;;;;;2.30;2.20;;;;;;;0.60;58.95;102269.72;4367925;32;33744;-84
2024/01/30 02:03:12;;;;;;;1.70;1.60;;;;;;;0.56;58.79;102267.84;4367597;32;33391;-84
2024/01/30 02:05:40;;;;;;;2.15;1.08;;;;;;;0.30;59.50;102266.88;4360245;32;33122;-84
2024/01/30 02:08:08;;;;;;;2.28;1.77;;;;;;;0.53;58.62;102267.75;4358277;32;32854;-84
2024/01/30 02:10:36;;;;;;;1.65;1.55;;;;;;;0.67;58.23;102270.84;4355147;32;34758;-84
2024/01/30 02:13:04;;;;;;;1.70;1.23;;;;;;;0.80;56.80;102261.75;4360841;32;33937;-86
2024/01/30 02:15:32;;;;;;;4.35;2.00;;;;;;;0.58;58.36;102260.13;4342048;32;32966;-86
2024/01/30 02:18:01;;;;;;;5.05;3.58;;;;;;;0.49;58.24;102266.75;4357213;32;31965;-84
2024/01/30 02:20:31;;;;;;;2.37;1.90;;;;;;;0.43;58.68;102270.84;4363342;32;34755;-84
2024/01/30 02:23:01;;;;;;;1.17;1.17;;;;;;;0.71;57.40;102264.91;4362799;32;33596;-84
2024/01/30 02:25:43;;;;;;;4.22;0.88;;;;;;;0.80;57.16;102266.94;4353240;32;33848;-84
2024/01/30 02:28:15;;;;;;;2.58;2.20;;;;;;;0.52;58.05;102260.75;4358654;32;34607;-83
2024/01/30 02:30:43;;;;;;;;;;;;;;;0.46;58.21;102258.81;4356438;32;34079;-84
2024/01/30 02:33:11;;;;;;;0.73;0.73;;;;;;;0.34;58.31;102260.09;4365894;32;34279;-83
2024/01/30 02:35:39;;;;;;;1.10;1.10;;;;;;;0.23;58.97;102257.06;4354759;32;32505;-83
2024/01/30 02:38:07;;;;;;;1.05;1.05;;;;;;;0.30;58.84;102258.22;4358109;32;34024;-83
2024/01/30 02:40:34;;;;;;;0.10;0.10;;;;;;;0.31;59.17;102259.97;4373101;32;34376;-83
2024/01/30 02:43:04;;;;;;;2.50;2.37;;;;;;;0.28;59.31;102263.31;4345375;32;32316;-83
2024/01/30 02:45:32;;;;;;;1.05;1.05;;;;;;;0.30;59.26;102264.28;4359275;32;33252;-83
2024/01/30 02:48:14;;;;;;;1.65;1.60;;;;;;;0.30;58.93;102264.28;4357461;32;32289;-85
2024/01/30 02:50:43;;;;;;;0.73;0.73;;;;;;;0.48;58.48;102259.78;4353988;32;32484;-86
2024/01/30 02:53:11;;;;;;;1.95;1.77;;;;;;;0.35;58.37;102264.47;4356112;32;33272;-87
2024/01/30 02:55:39;;;;;;;3.85;3.37;;;;;;;0.64;57.55;102265.53;4348986;32;33170;-85
2024/01/30 02:58:07;;;;;;;1.45;1.35;;;;;;;0.54;57.65;102261.72;4354735;32;32810;-85
2024/01/30 03:00:35;;;;;;;1.70;1.60;;;;;;;0.49;57.78;102260.66;4362711;32;32838;-86
2024/01/30 03:03:03;;;;;;;0.80;0.80;;;;;;;0.48;57.14;102258.91;4345694;32;33128;-87
2024/01/30 03:05:30;;;;;;;0.98;0.98;;;;;;;0.50;57.37;102263.31;4359504;32;33338;-87
2024/01/30 03:07:58;;;;;;;0.95;0.95;;;;;;;0.31;57.85;102266.06;4350456;32;33888;-87
2024/01/30 03:10:26;;;;;;;3.40;2.55;;;;;;;0.47;56.97;102264.91;4371610;32;33112;-87
2024/01/30 03:12:54;;;;;;;0.40;0.40;;;;;;;0.48;57.43;102258.91;4336858;32;33207;-86
2024/01/30 03:15:22;;;;;;;0.95;0.95;;;;;;;0.55;57.30;102260.87;4343227;32;33773;-86
2024/01/30 03:17:50;;;;;;;1.62;1.55;;;;;;;0.37;57.84;102257.59;4368699;32;34005;-85
2024/01/30 03:20:18;;;;;;;0.62;0.62;;;;;;;0.27;58.17;102260.69;4362477;32;33875;-86
2024/01/30 03:22:46;;;;;;;1.70;1.60;;;;;;;0.12;58.53;102264.47;4348241;32;33921;-86
2024/01/30 03:25:13;;;;;;;1.12;1.08;;;;;;;0.00;58.90;102266.63;4343495;32;33202;-86
2024/01/30 03:27:41;;;;;;;2.87;2.17;;;;;;;0.09;58.70;102268.66;4352621;32;32911;-85
2024/01/30 03:30:09;;;;;;;0.73;0.73;;;;;;;0.12;58.38;102267.06;4362056;32;32923;-86
2024/01/30 03:32:37;;;;;;;0.52;0.52;;;;;;;-0.05;58.67;102270.72;4352727;32;34136;-85
2024/01/30 03:35:05;;;;;;;2.12;1.98;;;;;;;-0.06;59.44;102266.34;4362851;32;32614;-86
2024/01/30 03:37:33;;;;;;;0.47;0.47;;;;;;;0.10;58.62;102270.47;4359184;32;33114;-86
2024/01/30 03:40:02;;;;;;;2.37;2.17;;;;;;;0.14;58.58;102267.13;4343286;32;32870;-85
2024/01/30 03:42:30;;;;;;;1.77;1.67;;;;;;;0.20;58.18;102257.88;4352045;32;32903;-85
2024/01/30 03:44:58;;;;;;;1.08;0.93;;;;;;;0.24;57.75;102254.56;4374728;32;33352;-85
2024/01/30 03:47:25;;;;;;;1.37;0.65;;;;;;;0.25;57.50;102252.84;4357711;32;34379;-85
2024/01/30 03:49:53;;;;;;;0.55;0.55;;;;;;;0.38;57.47;102243.75;4364283;32;33042;-86
2024/01/30 03:52:21;;;;;;;0.68;0.68;;;;;;;0.30;57.50;102246.09;4350878;32;32570;-84
2024/01/30 03:54:49;;;;;;;1.98;0.52;;;;;;;0.24;57.87;102244.16;4356559;32;32750;-84
2024/01/30 03:57:18;;;;;;;1.05;1.05;;;;;;;0.16;57.70;102240.37;4355450;32;34074;-83
2024/01/30 03:59:45;;;;;;;3.22;2.35;;;;;;;0.05;58.51;102240.78;4358529;32;33999;-84
2024/01/30 04:02:13;;;;;;;0.62;0.62;;;;;;;-0.09;58.84;102251.56;4349692;32;33779;-84
2024/01/30 04:04:41;;;;;;;3.03;2.83;;;;;;;0.16;57.34;102245.59;4373859;32;34185;-83
2024/01/30 04:07:09;;;;;;;1.27;1.27;;;;;;;-0.07;58.60;102249.00;4363224;32;33227;-87
2024/01/30 04:09:38;;;;;;;3.37;3.15;;;;;;;-0.13;58.83;102249.66;4342249;32;33031;-87
2024/01/30 04:12:06;;;;;;;1.95;0.85;;;;;;;0.22;57.68;102240.59;4358069;32;32896;-87
2024/01/30 04:14:35;;;;;;;1.85;1.75;;;;;;;0.12;58.04;102240.22;4361443;32;32487;-87
2024/01/30 04:17:03;;;;;;;1.02;1.00;;;;;;;0.07;57.89;102244.34;4370112;32;33818;-85
2024/01/30 04:19:31;;;;;;;0.47;0.37;;;;;;;-0.07;57.84;102236.91;4358022;32;33772;-85
2024/01/30 04:21:58;;;;;;;0.00;0.00;;;;;;;-0.34;58.83;102241.91;4360534;32;34177;-86
2024/01/30 04:24:26;;;;;;;0.57;0.57;;;;;;;-0.12;58.89;102232.38;4364314;32;32167;-86
2024/01/30 04:26:54;;;;;;;0.47;0.47;;;;;;;-0.10;58.39;102239.38;4337079;32;32947;-86
2024/01/30 04:29:22;;;;;;;0.85;0.85;;;;;;;0.05;58.25;102236.50;4338885;32;33046;-86
2024/01/30 04:31:50;;;;;;;0.80;0.45;;;;;;;-0.28;57.74;102239.56;4369697;32;33760;-86
2024/01/30 04:34:17;;;;;;;1.20;1.10;;;;;;;-0.08;58.22;102242.06;4364871;32;32554;-86
2024/01/30 04:36:46;;;;;;;1.80;1.73;;;;;;;0.01;57.64;102244.13;4362293;32;33789;-85
2024/01/30 04:39:13;;;;;;;0.00;0.00;;;;;;;0.13;57.26;102244.56;4364401;32;33758;-85
2024/01/30 04:41:41;;;;;;;0.37;0.37;;;;;;;-0.06;57.64;102250.78;4364257;32;32732;-85
2024/01/30 04:44:09;;;;;;;1.98;1.87;;;;;;;0.11;57.33;102236.72;4374669;32;33903;-87
2024/01/30 04:46:36;;;;;;;0.43;0.43;;;;;;;-0.12;58.09;102242.75;4349336;32;33056;-87
2024/01/30 04:49:05;;;;;;;0.25;0.25;;;;;;;-0.29;58.89;102248.16;4362855;32;32867;-86
2024/01/30 04:51:33;;;;;;;1.02;1.02;;;;;;;-0.13;58.17;102252.25;4354699;32;33665;-85
2024/01/30 04:54:01;;;;;;;3.20;0.65;;;;;;;-0.04;57.73;102251.75;4365724;32;33706;-85
2024/01/30 04:56:29;;;;;;;0.55;0.55;;;;;;;-0.08;57.68;102253.31;4364512;32;34237;-85
2024/01/30 04:58:57;;;;;;;1.35;1.30;;;;;;;-0.15;57.78;102258.22;4350347;32;33087;-85
2024/01/30 05:01:24;;;;;;;0.22;0.22;;;;;;;-0.12;57.58;102260.94;4361597;32;33675;-85
2024/01/30 05:03:52;;;;;;;0.50;0.50;;;;;;;-0.04;57.47;102251.75;4345909;32;33241;-85
2024/01/30 05:06:27;;;;;;;2.60;2.40;;;;;;;-0.12;57.53;102259.22;4374705;32;34620;-85
2024/01/30 05:08:55;;;;;;;1.48;1.48;;;;;;;-0.35;58.45;102260.00;4355225;32;32615;-85
2024/01/30 05:11:23;;;;;;;1.42;1.37;;;;;;;-0.38;58.31;102259.88;4348724;32;33816;-85
2024/01/30 05:13:51;;;;;;;0.80;0.80;;;;;;;-0.26;58.31;102261.28;4364356;32;33147;-85
2024/01/30 05:16:19;;;;;;;1.02;1.02;;;;;;;-0.14;57.67;102265.16;4371855;32;33995;-85
2024/01/30 05:18:47;;;;;;;0.98;0.98;;;;;;;-0.11;56.97;102270.50;4362243;32;34530;-85
2024/01/30 05:21:15;;;;;;;0.50;0.50;;;;;;;-0.41;58.32;102277.94;4356061;32;32944;-85
2024/01/30 05:23:43;;;;;;;0.68;0.68;;;;;;;-0.34;58.42;102273.06;4375418;32;33800;-85
2024/01/30 05:26:11;;;;;;;0.35;0.35;;;;;;;-0.45;58.44;102269.16;4359054;32;34595;-84
2024/01/30 05:28:39;;;;;;;0.50;0.50;;;;;;;-0.51;58.64;102279.28;4363066;32;32812;-84
2024/01/30 05:31:07;;;;;;;0.62;0.62;;;;;;;-0.48;58.50;102286.28;4374314;32;34572;-84
2024/01/30 05:33:35;;;;;;;0.82;0.82;;;;;;;-0.23;57.55;102277.81;4360058;32;33020;-84
2024/01/30 05:36:04;;;;;;;1.23;1.12;;;;;;;-0.30;57.99;102280.13;4361200;32;32655;-84
2024/01/30 05:38:32;;;;;;;3.40;3.10;;;;;;;-0.38;57.91;102283.25;4367892;32;32989;-84
2024/01/30 05:40:59;;;;;;;0.50;0.50;;;;;;;-0.18;57.31;102284.94;4354851;32;33717;-83
2024/01/30 05:43:27;;;;;;;0.85;0.85;;;;;;;-0.07;56.89;102280.19;4361362;32;33650;-83
2024/01/30 05:45:55;;;;;;;1.08;1.08;;;;;;;-0.38;57.47;102286.75;4362082;32;34277;-85
2024/01/30 05:48:23;;;;;;;0.90;0.90;;;;;;;-0.39;57.74;102289.28;4360926;32;33606;-84
2024/01/30 05:50:51;;;;;;;1.12;1.10;;;;;;;-0.49;58.05;102282.81;4373215;32;34034;-84
2024/01/30 05:53:19;;;;;;;1.00;1.00;;;;;;;-0.49;58.43;102288.00;4350751;32;32947;-85
2024/01/30 05:55:46;;;;;;;2.05;1.37;;;;;;;-0.43;57.89;102288.25;4366138;32;33524;-84
2024/01/30 05:58:14;;;;;;;0.30;0.30;;;;;;;-0.35;58.28;102278.19;4363478;32;33918;-84
2024/01/30 06:00:43;;;;;;;1.90;1.35;;;;;;;-0.49;58.73;102288.00;4374792;32;33905;-84
2024/01/30 06:03:11;;;;;;;0.65;0.65;;;;;;;-0.42;58.44;102283.97;4347162;32;33351;-84
2024/01/30 06:05:39;;;;;;;0.75;0.37;;;;;;;-0.65;58.95;102289.09;4348137;32;33157;-84
2024/01/30 06:08:07;;;;;;;2.20;2.10;;;;;;;-0.31;57.85;102283.56;4371627;32;33018;-84
2024/01/30 06:10:35;;;;;;;0.37;0.37;;;;;;;-0.26;57.25;102282.03;4351807;32;31501;-85
2024/01/30 06:13:03;;;;;;;0.40;0.40;;;;;;;-0.29;57.18;102286.22;4343598;32;32192;-84
2024/01/30 06:15:32;;;;;;;1.62;1.52;;;;;;;-0.39;57.77;102284.06;4359456;32;34697;-83
2024/01/30 06:18:00;;;;;;;0.47;0.47;;;;;;;-0.23;57.35;102281.28;4360381;32;32484;-84
2024/01/30 06:20:28;;;;;;;1.35;1.35;;;;;;;-0.24;57.69;102289.00;4378723;32;34585;-84
2024/01/30 06:22:56;;;;;;;5.15;2.97;;;;;;;-0.36;57.73;102285.09;4353548;32;33070;-84
2024/01/30 06:25:24;;;;;;;1.23;1.20;;;;;;;-0.32;57.94;102280.91;4368656;32;34266;-87
2024/01/30 06:27:52;;;;;;;0.22;0.20;;;;;;;-0.32;58.52;102284.41;4345193;32;35037;-84
2024/01/30 06:30:20;;;;;;;2.45;2.25;;;;;;;-0.41;58.22;102281.44;4374984;32;33977;-84
2024/01/30 06:32:48;;;;;;;1.77;1.73;;;;;;;-0.11;57.42;102289.56;4365933;32;33031;-84
2024/01/30 06:35:17;;;;;;;2.00;1.90;;;;;;;-0.43;57.87;102288.25;4347199;32;33321;-86
2024/01/30 06:37:45;;;;;;;0.98;0.98;;;;;;;-0.26;57.88;102288.94;4349344;32;32867;-85
2024/01/30 06:40:14;;;;;;;2.47;2.25;;;;;;;-0.36;58.02;102298.06;4352236;32;34949;-85
2024/01/30 06:42:41;;;;;;;0.35;0.35;;;;;;;-0.14;57.36;102293.72;4370127;32;32313;-85
2024/01/30 06:45:37;;;;;;;0.00;0.00;;;;;;;-0.24;57.22;102295.06;4355109;32;32329;-84
2024/01/30 06:48:06;;;;;;;1.33;1.33;;;;;;;-0.06;57.06;102289.72;4364359;32;34192;-85
2024/01/30 06:50:34;;;;;;;3.90;3.58;;;;;;;-0.19;57.81;102300.44;4350383;32;34063;-85
2024/01/30 06:53:01;;;;;;;1.45;1.40;;;;;;;-0.38;58.40;102299.75;4362804;32;31924;-85
2024/01/30 06:55:29;;;;;;;2.50;2.30;;;;;;;-0.40;58.52;102298.75;4345553;32;32588;-85
2024/01/30 06:57:57;;;;;;;1.27;1.23;;;;;;;-0.29;58.18;102297.47;4335815;32;33573;-85
2024/01/30 07:00:24;;;;;;;4.68;2.45;;;;;;;-0.25;58.57;102303.69;4364309;32;34487;-84
2024/01/30 07:02:53;;;;;;;1.30;1.27;;;;;;;-0.20;58.32;102301.28;4358586;32;33024;-85
2024/01/30 07:05:21;;;;;;;2.67;2.55;;;;;;;-0.24;59.16;102304.56;4350466;32;33098;-85
2024/01/30 07:07:49;;;;;;;2.83;1.45;;;;;;;-0.19;58.80;102300.44;4355239;32;32609;-85
2024/01/30 07:10:17;;;;;;;2.47;2.28;;;;;;;-0.14;58.43;102301.50;4351219;32;34210;-85
2024/01/30 07:12:45;;;;;;;1.00;1.00;;;;;;;-0.03;58.58;102306.31;4352451;32;33858;-85
2024/01/30 07:15:16;;;;;;;4.68;1.95;;;;;;;0.17;57.99;102304.50;4358520;32;33838;-85
2024/01/30 07:17:44;;;;;;;3.03;2.83;;;;;;;0.15;58.34;102302.69;4360448;32;32674;-85
2024/01/30 07:20:12;;;;;;;1.62;1.52;;;;;;;0.35;57.96;102304.31;4356648;32;33391;-85
2024/01/30 07:22:44;;;;;;;2.85;2.58;;;;;;;0.47;57.80;102298.69;4363550;32;32788;-85
2024/01/30 07:25:12;;;;;;;1.87;1.77;;;;;;;0.54;57.60;102299.81;4352138;32;32333;-85
2024/01/30 07:27:40;;;;;;;0.85;0.85;;;;;;;0.48;58.09;102301.37;4349898;32;32622;-85
2024/01/30 07:30:09;;;;;;;2.60;2.50;;;;;;;0.56;58.03;102299.03;4365126;32;34111;-85
2024/01/30 07:32:36;;;;;;;13.73;9.50;;;;;;;0.46;58.39;102303.00;4357549;32;34003;-85
2024/01/30 07:35:04;;;;;;;6.62;5.05;;;;;;;0.27;59.51;102308.34;4353826;32;33763;-85
2024/01/30 07:37:36;;;;;;;5.78;5.28;;;;;;;0.36;59.70;102297.41;4353658;32;34442;-84
2024/01/30 07:40:04;;;;;;;6.80;6.22;;;;;;;0.50;59.58;102298.81;4357105;32;33924;-85
2024/01/30 07:42:33;;;;;;;2.60;2.47;;;;;;;0.70;59.14;102292.62;4356031;32;33699;-85
2024/01/30 07:45:01;;;;;;;3.37;3.17;;;;;;;0.54;59.99;102292.91;4360848;32;34598;-85
2024/01/30 07:47:28;;;;;;;12.88;6.10;;;;;;;0.89;59.15;102288.09;4360730;32;32564;-85
2024/01/30 07:49:56;;;;;;;5.32;4.93;;;;;;;0.90;59.32;102282.97;4358139;32;32700;-85
2024/01/30 07:52:24;;;;;;;4.20;3.90;;;;;;;1.09;58.78;102283.56;4359204;32;32994;-85
2024/01/30 07:54:52;;;;;;;2.55;2.45;;;;;;;1.15;59.60;102284.69;4364243;32;34607;-85
2024/01/30 07:57:20;;;;;;;2.50;2.40;;;;;;;1.36;58.94;102291.47;4375733;32;34491;-85
2024/01/30 07:59:47;;;;;;;9.45;8.55;;;;;;;1.47;58.93;102290.09;4364222;32;33082;-85
2024/01/30 08:02:15;;;;;;;9.48;6.50;;;;;;;1.44;59.52;102285.69;4356643;32;32629;-85
2024/01/30 08:04:43;;;;;;;5.28;4.87;;;;;;;1.58;59.91;102280.03;4371597;32;33815;-85
2024/01/30 08:07:11;;;;;;;5.30;3.20;;;;;;;1.75;60.11;102286.66;4374058;32;33693;-85
2024/01/30 08:09:39;;;;;;;5.75;5.35;;;;;;;1.79;61.16;102278.13;4354766;32;34272;-85
2024/01/30 08:12:07;;;;;;;2.47;2.30;;;;;;;2.11;61.10;102286.94;4376678;32;33306;-85
2024/01/30 08:14:34;;;;;;;1.20;1.15;;;;;;;2.25;61.85;102290.84;4364067;32;32290;-85
2024/01/30 08:17:02;;;;;;;3.50;2.55;;;;;;;2.30;63.57;102284.06;4357101;32;33995;-85
2024/01/30 08:19:30;;;;;;;1.98;1.87;;;;;;;2.40;63.62;102282.59;4363289;32;34067;-85
2024/01/30 08:21:58;;;;;;;1.65;1.55;;;;;;;2.56;63.97;102281.31;4363704;32;33895;-85
2024/01/30 08:24:28;;;;;;;1.77;1.67;;;;;;;2.77;63.13;102276.72;4359012;32;32477;-85
2024/01/30 08:27:09;;;;;;;3.10;2.25;;;;;;;3.03;63.04;102285.25;4363088;32;33121;-85
2024/01/30 08:29:36;;;;;;;2.75;2.58;;;;;;;3.12;63.62;102288.94;4362722;32;34049;-85
2024/01/30 08:32:06;;;;;;;3.55;3.35;;;;;;;2.95;64.31;102285.91;4364311;32;31777;-85
2024/01/30 08:34:33;;;;;;;2.15;1.70;;;;;;;3.20;64.10;102288.31;4338689;32;32850;-85
2024/01/30 08:37:01;;;;;;;18.42;4.45;;;;;;;3.27;64.47;102284.13;4338924;32;32455;-85
2024/01/30 08:39:30;;;;;;;5.55;5.07;;;;;;;3.49;63.54;102293.41;4376012;32;33258;-85
2024/01/30 08:41:57;;;;;;;3.30;3.10;;;;;;;3.25;64.44;102299.75;4351532;32;32518;-85
2024/01/30 08:44:25;;;;;;;2.90;2.67;;;;;;;3.38;63.92;102307.91;4335302;32;33658;-85
2024/01/30 08:46:53;;;;;;;4.05;2.05;;;;;;;3.22;64.76;102297.06;4361668;32;33917;-85
2024/01/30 08:49:23;;;;;;;1.00;1.00;;;;;;;3.08;64.72;102303.63;4358568;32;32362;-86
2024/01/30 08:51:51;;;;;;;2.28;2.17;;;;;;;3.56;63.89;102297.91;4343117;32;31962;-86
2024/01/30 08:54:19;;;;;;;2.40;1.90;;;;;;;3.68;63.08;102289.50;4362212;32;34685;-86
2024/01/30 08:56:46;;;;;;;0.45;0.43;;;;;;;3.36;64.16;102296.53;4344672;32;34253;-86
2024/01/30 08:59:14;;;;;;;1.48;1.33;;;;;;;3.61;63.68;102291.09;4354031;32;33106;-85
2024/01/30 09:01:42;;;;;;;3.10;1.85;;;;;;;3.88;63.04;102284.75;4374046;32;32475;-85
2024/01/30 09:04:26;;;;;;;3.15;1.90;;;;;;;3.57;63.88;102286.66;4348785;32;32040;-85
2024/01/30 09:06:55;;;;;;;2.72;0.98;;;;;;;3.53;64.35;102290.03;4352177;32;34575;-85
2024/01/30 09:09:22;;;;;;;1.50;1.37;;;;;;;3.85;63.76;102285.56;4360422;32;33627;-85
2024/01/30 09:11:50;;;;;;;2.50;2.30;;;;;;;3.83;63.63;102282.91;4372872;32;33477;-85
2024/01/30 09:14:19;;;;;;;0.45;0.45;;;;;;;4.01;63.34;102278.97;4354640;32;32519;-85
2024/01/30 09:16:48;;;;;;;3.03;2.72;;;;;;;3.96;62.97;102280.59;4356148;32;34021;-85
2024/01/30 09:19:16;;;;;;;1.65;1.55;;;;;;;4.20;62.93;102273.28;4358277;32;33155;-85
2024/01/30 09:21:44;;;;;;;0.95;0.95;;;;;;;4.24;62.70;102280.38;4349963;32;33585;-85
2024/01/30 09:24:14;;;;;;;1.67;1.58;;;;;;;4.21;62.70;102280.28;4371298;32;33789;-85
2024/01/30 09:26:42;;;;;;;1.17;1.17;;;;;;;3.99;63.87;102283.28;4374613;32;34024;-85
2024/01/30 09:29:10;;;;;;;2.33;2.12;;;;;;;4.43;62.96;102286.00;4371010;32;34643;-85
2024/01/30 09:31:38;;;;;;;0.35;0.35;;;;;;;4.47;62.96;102282.59;4361075;32;32833;-85
2024/01/30 09:34:05;;;;;;;4.03;3.75;;;;;;;4.46;63.21;102280.81;4369562;32;33802;-85
2024/01/30 09:36:34;;;;;;;3.42;2.90;;;;;;;4.16;63.90;102267.97;4356255;32;34811;-85
2024/01/30 09:39:02;;;;;;;2.42;2.22;;;;;;;4.30;64.13;102271.75;4359471;32;33783;-85
2024/01/30 09:41:32;;;;;;;1.80;1.73;;;;;;;4.72;63.85;102271.75;4348584;32;32919;-85
2024/01/30 09:44:02;;;;;;;1.10;1.10;;;;;;;4.54;63.69;102279.25;4369275;32;34269;-86
2024/01/30 09:46:32;;;;;;;1.52;0.57;;;;;;;4.35;64.51;102277.97;4355130;32;33704;-86
2024/01/30 09:49:00;;;;;;;1.77;1.67;;;;;;;4.57;63.80;102280.19;4345219;32;32167;-86
2024/01/30 09:51:29;;;;;;;1.85;1.75;;;;;;;4.73;63.05;102275.25;4358573;32;32562;-85
2024/01/30 09:53:56;;;;;;;3.22;3.00;;;;;;;5.35;61.10;102270.31;4367557;32;33496;-86
2024/01/30 09:56:24;;;;;;;3.25;2.95;;;;;;;5.22;61.21;102271.84;4365466;32;33912;-85
2024/01/30 09:58:53;;;;;;;2.45;2.35;;;;;;;5.35;61.48;102273.81;4359754;32;33181;-86
2024/01/30 10:01:20;;;;;;;7.22;4.22;;;;;;;5.12;62.42;102277.75;4362304;32;32433;-85
2024/01/30 10:03:52;;;;;;;1.95;1.85;;;;;;;5.14;62.36;102279.56;4366423;32;31787;-85
2024/01/30 10:06:21;;;;;;;4.50;4.20;;;;;;;5.37;62.12;102274.72;4355382;32;32630;-85
2024/01/30 10:08:52;;;;;;;1.73;1.70;;;;;;;5.32;62.52;102275.50;4366328;32;33485;-85
2024/01/30 10:11:20;;;;;;;1.42;1.35;;;;;;;5.69;62.39;102274.34;4364149;32;32000;-85
2024/01/30 10:13:47;;;;;;;1.12;1.12;;;;;;;5.43;63.01;102273.06;4373417;32;33758;-85
2024/01/30 10:16:16;;;;;;;4.57;1.48;;;;;;;5.37;63.76;102269.47;4360363;32;89672;-86
2024/01/30 10:18:44;;;;;;;4.62;1.90;;;;;;;5.94;61.76;102261.69;4362549;32;32956;-85
2024/01/30 10:21:12;;;;;;;0.32;0.32;;;;;;;5.66;62.79;102269.09;4375031;32;33007;-85
2024/01/30 10:23:40;;;;;;;2.85;2.58;;;;;;;5.50;63.50;102267.06;4354985;32;32406;-86
2024/01/30 10:26:08;;;;;;;0.55;0.55;;;;;;;5.89;62.81;102259.84;4353103;32;33837;-85
2024/01/30 10:28:36;;;;;;;3.92;2.17;;;;;;;5.99;62.47;102253.00;4361182;32;33609;-86
2024/01/30 10:31:04;;;;;;;1.05;0.95;;;;;;;6.14;62.13;102252.34;4371077;32;33777;-85
2024/01/30 10:33:33;;;;;;;9.13;1.23;;;;;;;6.21;61.51;102248.94;4354772;32;32293;-86
2024/01/30 10:36:05;;;;;;;2.10;2.00;;;;;;;6.33;60.70;102249.09;4368600;32;33936;-87
2024/01/30 10:38:33;;;;;;;0.95;0.95;;;;;;;6.14;61.77;102250.59;4367293;32;32840;-86
2024/01/30 10:41:01;;;;;;;1.33;0.93;;;;;;;6.12;61.30;102246.19;4360145;32;33294;-85
2024/01/30 10:43:35;;;;;;;3.62;3.03;;;;;;;6.55;59.89;102241.47;4351361;32;33408;-86
2024/01/30 10:46:20;;;;;;;5.57;2.20;;;;;;;6.72;60.89;102245.19;4375312;32;34046;-85
2024/01/30 10:48:58;;;;;;;3.47;2.72;;;;;;;7.06;59.46;102245.53;4365378;32;34279;-87
2024/01/30 10:51:27;;;;;;;10.15;2.00;;;;;;;7.46;57.60;102231.03;4366378;32;32504;-87
2024/01/30 10:53:56;;;;;;;1.92;1.80;;;;;;;6.53;59.73;102235.34;4375563;32;33032;-87
2024/01/30 10:56:25;;;;;;;0.82;0.82;;;;;;;7.02;58.58;102225.34;4364038;32;34271;-87
2024/01/30 10:58:55;;;;;;;1.35;1.25;;;;;;;7.14;57.97;102220.22;4356322;32;32637;-87
2024/01/30 11:01:23;;;;;;;3.00;1.67;;;;;;;7.34;56.47;102205.50;4361248;32;32717;-87
2024/01/30 11:03:52;;;;;;;4.97;2.25;;;;;;;7.73;55.58;102206.66;4360839;32;33909;-87
2024/01/30 11:06:24;;;;;;;2.55;2.35;;;;;;;7.45;56.15;102208.19;4352970;32;33459;-87
2024/01/30 11:09:09;;;;;;;2.37;2.28;;;;;;;7.18;57.79;102203.63;4361257;32;33056;-87
2024/01/30 11:11:52;;;;;;;1.90;1.30;;;;;;;7.32;57.46;102207.25;4342592;32;32746;-87
2024/01/30 11:14:25;;;;;;;1.45;1.37;;;;;;;6.79;58.43;102202.38;4373720;32;33793;-87
2024/01/30 11:16:57;;;;;;;0.30;0.30;;;;;;;7.26;57.52;102191.41;4358483;32;33325;-87
2024/01/30 11:19:26;;;;;;;1.50;1.40;;;;;;;7.35;57.87;102196.75;4362456;32;34630;-87
2024/01/30 11:21:56;;;;;;;3.92;2.17;;;;;;;7.30;58.38;102197.56;4355925;32;30352;-87
2024/01/30 11:24:25;;;;;;;0.75;0.73;;;;;;;6.96;59.08;102196.41;4361225;32;34324;-87
2024/01/30 11:26:59;;;;;;;1.42;1.30;;;;;;;7.21;57.72;102179.97;4365171;32;34435;-87
2024/01/30 11:29:28;;;;;;;5.72;2.95;;;;;;;7.21;57.59;102182.59;4350664;32;32401;-87
2024/01/30 11:31:57;;;;;;;1.48;0.52;;;;;;;7.45;57.33;102174.03;4357924;32;32744;-87
2024/01/30 11:34:25;;;;;;;0.45;0.30;;;;;;;7.92;55.29;102176.94;4363123;32;34181;-87
2024/01/30 11:37:01;;;;;;;0.75;0.75;;;;;;;8.14;55.38;102177.06;4368986;32;33428;-87
2024/01/30 11:39:32;;;;;;;0.82;0.82;;;;;;;7.76;56.03;102175.13;4356235;32;34374;-87